Terminal Aerodrome Forecast
Issued by NWS

Home | Current Version | Previous Version | Text Only | Print | Product List | Glossary On
Versions: 1 2 3 4 5 6 7 8 9 10 11 12 13 14 15 16 17 18 19 20 21 22 23 24 25 26 27 28 29 30
476
FTUS45 KPSR 240520
TAFIWA
TAF
KIWA 240520Z 2406/2506 26004KT P6SM SKC
     FM240700 12008KT P6SM SKC
     FM241700 25010G17KT P6SM SKC
     FM250300 29006KT P6SM SKC
      AMD LTD TO CLD VIS AND WIND TIL 241300=

USA.gov is the U.S. government's official web portal to all federal, state and local government web resources and services.